createdAt,value
2019-03-29T00:04:51.059Z,13.73
2019-03-29T00:09:57.161Z,13.20
2019-03-29T00:15:05.249Z,13.80
2019-03-29T00:20:11.161Z,14.10
2019-03-29T00:25:16.736Z,14.43
2019-03-29T00:30:23.553Z,14.73
2019-03-29T00:35:30.833Z,14.63
2019-03-29T00:40:39.401Z,14.97
2019-03-29T00:45:45.167Z,14.37
2019-03-29T00:50:51.654Z,14.77
2019-03-29T00:55:57.514Z,15.47
2019-03-29T01:01:03.458Z,14.63
2019-03-29T01:06:09.027Z,14.67
2019-03-29T01:11:14.954Z,14.03
2019-03-29T01:16:20.712Z,14.27
2019-03-29T01:21:27.014Z,13.53
2019-03-29T01:26:34.517Z,15.00
2019-03-29T01:31:40.240Z,13.23
2019-03-29T01:36:46.575Z,12.90
2019-03-29T01:41:53.016Z,12.63
2019-03-29T01:46:58.830Z,12.73
2019-03-29T01:52:04.480Z,12.60
2019-03-29T01:57:10.282Z,13.13
2019-03-29T02:02:16.225Z,13.53
2019-03-29T02:07:21.858Z,12.57
2019-03-29T02:12:28.966Z,14.10
2019-03-29T02:17:34.855Z,15.20
2019-03-29T02:22:40.503Z,14.63
2019-03-29T02:27:46.311Z,15.90
2019-03-29T02:32:53.473Z,17.20
2019-03-29T02:38:00.562Z,19.20
2019-03-29T02:43:06.314Z,17.73
2019-03-29T02:48:14.095Z,19.87
2019-03-29T02:53:21.777Z,20.03
2019-03-29T02:58:27.699Z,19.27
2019-03-29T03:03:34.369Z,21.23
2019-03-29T03:08:40.601Z,20.67
2019-03-29T03:13:46.475Z,23.87
2019-03-29T03:18:52.456Z,25.67
2019-03-29T03:23:58.181Z,24.00
2019-03-29T03:29:05.190Z,25.10
2019-03-29T03:34:10.956Z,25.40
2019-03-29T03:39:30.644Z,27.77
2019-03-29T03:44:24.411Z,25.40
2019-03-29T03:49:30.384Z,25.90
2019-03-29T03:54:36.163Z,25.50
2019-03-29T03:59:45.322Z,23.83
2019-03-29T04:04:51.138Z,26.13
2019-03-29T04:09:58.478Z,25.87
2019-03-29T04:15:05.267Z,23.43
2019-03-29T04:20:11.485Z,23.23
2019-03-29T04:25:18.974Z,24.00
2019-03-29T04:30:24.842Z,22.83
2019-03-29T04:35:32.093Z,23.90
2019-03-29T04:40:38.045Z,24.00
2019-03-29T04:45:44.393Z,23.93
2019-03-29T04:50:50.043Z,23.53
2019-03-29T04:55:56.613Z,23.20
2019-03-29T05:01:02.189Z,23.57
2019-03-29T05:06:07.797Z,23.10
2019-03-29T05:11:13.985Z,22.20
2019-03-29T05:16:19.926Z,23.63
2019-03-29T05:21:26.397Z,25.23
2019-03-29T05:26:32.254Z,22.73
2019-03-29T05:31:39.290Z,22.77
2019-03-29T05:36:44.880Z,22.90
2019-03-29T05:41:50.829Z,22.67
2019-03-29T05:46:56.665Z,23.87
2019-03-29T05:52:02.568Z,23.20
2019-03-29T05:57:08.141Z,22.30
2019-03-29T06:02:13.799Z,23.57
2019-03-29T06:07:19.559Z,23.80
2019-03-29T06:12:26.774Z,24.40
2019-03-29T06:17:32.438Z,24.93
2019-03-29T06:22:38.599Z,24.67
2019-03-29T06:27:44.331Z,23.70
2019-03-29T06:32:50.095Z,23.93
2019-03-29T06:37:55.839Z,24.53
2019-03-29T06:43:01.448Z,25.50
2019-03-29T06:48:08.427Z,23.97
2019-03-29T06:53:14.961Z,24.30
2019-03-29T06:58:21.434Z,24.70
2019-03-29T07:03:27.014Z,23.73
2019-03-29T07:08:32.599Z,23.30
2019-03-29T07:13:39.127Z,25.20
2019-03-29T07:18:45.104Z,22.77
2019-03-29T07:23:51.113Z,24.30
2019-03-29T07:28:58.513Z,22.80
2019-03-29T07:34:04.479Z,20.87
2019-03-29T07:39:10.450Z,21.83
2019-03-29T07:44:16.100Z,22.07
2019-03-29T07:49:22.103Z,20.60
2019-03-29T07:54:27.785Z,21.27
2019-03-29T07:59:33.537Z,21.83
2019-03-29T08:04:39.629Z,19.13
2019-03-29T08:09:45.888Z,19.40
2019-03-29T08:14:51.832Z,18.57
2019-03-29T08:20:35.589Z,18.87
2019-03-29T08:25:06.764Z,18.97
2019-03-29T08:30:12.504Z,18.80
2019-03-29T08:35:18.673Z,18.47
2019-03-29T08:40:24.897Z,18.27
2019-03-29T08:45:30.954Z,18.33
2019-03-29T08:50:38.298Z,18.60
2019-03-29T08:55:45.927Z,18.27
2019-03-29T09:00:52.777Z,16.97
2019-03-29T09:05:58.828Z,18.30
2019-03-29T09:11:07.417Z,17.10
2019-03-29T09:16:11.988Z,16.67
2019-03-29T09:21:17.725Z,16.10
2019-03-29T09:26:23.973Z,15.43
2019-03-29T09:31:29.722Z,16.23
2019-03-29T09:36:35.626Z,14.27
2019-03-29T09:41:41.468Z,13.90
2019-03-29T09:46:47.250Z,13.60
2019-03-29T09:51:53.123Z,12.27
2019-03-29T09:56:59.192Z,13.37
2019-03-29T10:02:04.856Z,12.00
2019-03-29T10:07:10.893Z,12.07
2019-03-29T10:12:17.168Z,9.60
2019-03-29T10:17:22.723Z,11.20
2019-03-29T10:22:28.368Z,10.33
2019-03-29T10:27:34.205Z,9.67
2019-03-29T10:32:40.050Z,8.40
2019-03-29T10:37:47.014Z,8.13
2019-03-29T10:42:58.007Z,7.17
2019-03-29T10:48:01.487Z,6.87
2019-03-29T10:53:07.440Z,7.73
2019-03-29T10:58:13.531Z,6.83
2019-03-29T11:03:20.013Z,6.20
2019-03-29T11:08:25.753Z,4.80
2019-03-29T11:13:31.656Z,4.60
2019-03-29T11:18:37.254Z,4.73
2019-03-29T11:23:43.394Z,4.43
2019-03-29T11:28:50.576Z,4.57
2019-03-29T11:33:56.787Z,4.63
2019-03-29T11:39:02.538Z,5.13
2019-03-29T11:44:10.555Z,4.80
2019-03-29T11:49:17.243Z,5.53
2019-03-29T11:54:23.295Z,4.97
2019-03-29T11:59:29.868Z,5.30
2019-03-29T12:04:35.583Z,4.50
2019-03-29T12:09:41.193Z,3.97
2019-03-29T12:14:46.839Z,3.60
2019-03-29T12:19:52.517Z,3.33
2019-03-29T12:24:59.175Z,3.63
2019-03-29T12:30:08.657Z,3.20
2019-03-29T12:35:14.351Z,3.73
2019-03-29T12:40:21.537Z,4.10
2019-03-29T12:45:28.551Z,4.20
2019-03-29T12:50:34.713Z,3.87
2019-03-29T12:55:40.690Z,4.03
2019-03-29T13:00:46.963Z,3.23
2019-03-29T13:05:52.883Z,4.00
2019-03-29T13:10:59.118Z,3.70
2019-03-29T13:16:05.535Z,3.97
2019-03-29T13:21:11.256Z,4.23
2019-03-29T13:26:18.429Z,3.90
2019-03-29T13:31:24.859Z,4.70
2019-03-29T13:36:30.475Z,4.10
2019-03-29T13:41:36.793Z,5.40
2019-03-29T13:46:42.411Z,5.23
2019-03-29T13:51:49.411Z,6.10
2019-03-29T13:56:55.475Z,6.10
2019-03-29T14:02:01.345Z,5.37
2019-03-29T14:07:07.171Z,5.50
2019-03-29T14:12:15.005Z,6.00
2019-03-29T14:17:23.535Z,6.20
2019-03-29T14:22:29.929Z,6.47
2019-03-29T14:27:35.559Z,6.60
2019-03-29T14:32:42.649Z,6.80
2019-03-29T14:37:48.197Z,6.77
2019-03-29T14:42:54.895Z,7.07
2019-03-29T14:48:01.029Z,6.63
2019-03-29T14:53:07.338Z,6.30
2019-03-29T14:58:13.248Z,6.80
2019-03-29T15:03:19.034Z,7.30
2019-03-29T15:08:24.885Z,7.90
2019-03-29T15:13:30.577Z,6.10
2019-03-29T15:18:38.729Z,6.00
2019-03-29T15:23:44.721Z,6.27
2019-03-29T15:28:51.137Z,6.40
2019-03-29T15:33:57.595Z,5.60
2019-03-29T15:39:03.694Z,5.53
2019-03-29T15:44:10.757Z,6.07
2019-03-29T15:49:16.645Z,5.57
2019-03-29T15:54:22.339Z,4.97
2019-03-29T15:59:28.059Z,5.27
2019-03-29T16:04:33.862Z,5.13
2019-03-29T16:09:39.410Z,5.77
2019-03-29T16:14:45.477Z,5.57
2019-03-29T16:19:51.866Z,5.77
2019-03-29T16:24:59.137Z,5.47
2019-03-29T16:30:07.745Z,6.93
2019-03-29T16:35:13.496Z,5.47
2019-03-29T16:40:19.495Z,5.40
2019-03-29T16:45:25.204Z,5.43
2019-03-29T16:50:31.186Z,6.20
2019-03-29T16:55:36.952Z,6.17
2019-03-29T17:00:43.134Z,6.57
2019-03-29T17:05:49.291Z,6.80
2019-03-29T17:10:54.919Z,6.60
2019-03-29T17:16:02.313Z,6.90
2019-03-29T17:21:09.041Z,6.40
2019-03-29T17:26:15.744Z,7.07
2019-03-29T17:31:22.029Z,6.47
2019-03-29T17:36:28.025Z,6.27
2019-03-29T17:41:35.289Z,6.90
2019-03-29T17:46:41.697Z,7.60
2019-03-29T17:51:47.956Z,7.37
2019-03-29T17:56:53.588Z,8.30
2019-03-29T18:02:09.347Z,7.47
2019-03-29T18:07:08.312Z,8.30
2019-03-29T18:12:15.380Z,7.03
2019-03-29T18:17:21.000Z,7.60
2019-03-29T18:22:27.059Z,8.37
2019-03-29T18:27:35.525Z,8.03
2019-03-29T18:32:42.218Z,8.63
2019-03-29T18:37:47.820Z,8.43
2019-03-29T18:42:55.467Z,8.50
2019-03-29T18:48:01.578Z,8.47
2019-03-29T18:53:07.601Z,8.57
2019-03-29T18:58:13.248Z,8.03
2019-03-29T19:03:19.483Z,8.63
2019-03-29T19:08:27.102Z,8.33
2019-03-29T19:13:32.941Z,8.43
2019-03-29T19:18:38.729Z,9.63
2019-03-29T19:23:44.603Z,9.07
2019-03-29T19:28:50.819Z,9.80
2019-03-29T19:33:58.147Z,9.97
2019-03-29T19:39:06.568Z,9.10
2019-03-29T19:44:14.055Z,9.60
2019-03-29T19:49:21.385Z,10.27
2019-03-29T19:54:28.160Z,9.77
2019-03-29T19:59:34.876Z,9.37
2019-03-29T20:04:40.528Z,8.93
2019-03-29T20:09:48.257Z,10.00
2019-03-29T20:14:56.035Z,10.03
2019-03-29T20:20:05.555Z,10.30
2019-03-29T20:25:11.721Z,9.63
2019-03-29T20:30:20.074Z,9.00
2019-03-29T20:35:28.609Z,9.53
2019-03-29T20:40:36.204Z,10.07
2019-03-29T20:45:43.503Z,9.60
2019-03-29T20:50:49.594Z,10.23
2019-03-29T20:55:58.295Z,10.33
2019-03-29T21:01:03.426Z,10.77
2019-03-29T21:06:10.923Z,11.70
2019-03-29T21:11:17.192Z,10.87
2019-03-29T21:16:23.513Z,11.10
2019-03-29T21:21:30.407Z,10.20
2019-03-29T21:26:36.979Z,10.93
2019-03-29T21:31:44.075Z,10.87
2019-03-29T21:36:50.119Z,11.40
2019-03-29T21:41:57.325Z,10.53
2019-03-29T21:47:02.986Z,11.57
2019-03-29T21:52:09.660Z,11.30
2019-03-29T21:57:15.531Z,10.67
2019-03-29T22:03:28.585Z,12.30
2019-03-29T22:08:35.773Z,10.37
2019-03-29T22:13:41.353Z,9.80
2019-03-29T22:18:47.073Z,9.80
2019-03-29T22:23:52.795Z,10.00
2019-03-29T22:28:58.357Z,9.47
2019-03-29T22:34:05.341Z,8.87
2019-03-29T22:39:11.413Z,8.20
2019-03-29T22:44:18.628Z,8.90
2019-03-29T22:49:24.417Z,8.93
2019-03-29T22:54:29.989Z,8.43
2019-03-29T22:59:35.954Z,8.07
2019-03-29T23:04:41.892Z,8.60
2019-03-29T23:09:47.448Z,7.77
2019-03-29T23:14:53.969Z,8.73
2019-03-29T23:20:01.555Z,8.67
2019-03-29T23:25:07.745Z,7.53
2019-03-29T23:30:13.862Z,8.33
2019-03-29T23:35:19.742Z,7.17
2019-03-29T23:40:25.337Z,8.13
2019-03-29T23:45:30.962Z,7.37
2019-03-29T23:50:36.739Z,7.33
2019-03-29T23:55:42.846Z,8.27
